METAR Data
IDs: Format: Raw Decoded Include TAF

Data at: 1530 UTC 18 Aug 2019

PFKW 181456Z AUTO 02009KT 10SM 08/07 A3035 RMK AO2 SLPNO 6//// T00830067
PFKW 181256Z AUTO 02008KT 10SM CLR 09/07 A3037 RMK AO2 SLP285 T00940072
PFKW 181156Z AUTO 02007KT 10SM CLR 10/08 A3038 RMK AO2 SLP285 T01000078 10150 20100 58009
PFKW 181056Z AUTO 02008KT 10SM CLR 11/08 A3039 RMK AO2 SLP289 T01060083
PFKW 180956Z AUTO 01009KT 10SM CLR 11/09 A3040 RMK AO2 SLP293 T01110089
PFKW 180856Z AUTO 01006KT 10SM CLR 12/08 A3040 RMK AO2 SLP295 T01170083 401670100 58005
PFKW 180756Z AUTO 01007KT 10SM CLR 12/09 A3041 RMK AO2 SLP298 T01220089
PFKW 180656Z AUTO 36005KT 10SM CLR 13/09 A3042 RMK AO2 SLP300 T01280094
PFKW 180556Z AUTO 02006KT 10SM CLR 15/10 A3042 RMK AO2 SLP300 T01500100 10167 20150 56007
PFKW 180456Z AUTO 03010KT 10SM CLR 16/09 A3042 RMK AO2 SLP300 T01610094
PFKW 180356Z AUTO 02012G17KT 10SM CLR 17/09 A3043 RMK AO2 SLP302 T01670089
PFKW 180256Z AUTO 03014G19KT 10SM CLR 17/09 A3044 RMK AO2 SLP307 T01670089 56012
PFKW 180156Z AUTO 02011G19KT 10SM CLR 17/08 A3045 RMK AO2 SLP310 T01670083
PFKW 180056Z AUTO 04015KT 10SM CLR 16/08 A3046 RMK AO2 SLP313 T01610083
PFKW 172356Z AUTO 03012KT 10SM CLR 17/08 A3047 RMK AO2 SLP318 T01670083 10167 20122 58007
PFKW 172256Z AUTO 04011G17KT 10SM CLR 16/08 A3049 RMK AO2 SLP323 T01610078
PFKW 172156Z AUTO 02013G17KT 10SM CLR 15/08 A3049 RMK AO2 SLP324 T01500078
PFKW 171956Z AUTO 01009KT 10SM CLR 13/09 A3050 RMK AO2 SLP327 T01330089
PFKW 171856Z AUTO 01009KT 10SM CLR 12/09 A3050 RMK AO2 SLP326 T01220089
PFKW 171756Z AUTO 02006KT 10SM CLR 11/09 A3049 RMK AO2 SLP326 T01110089 10139 20100 51004
PFKW 171656Z AUTO 02008KT 10SM CLR 10/09 A3049 RMK AO2 SLP326 T01000089
PFKW 171556Z AUTO 02007KT 10SM FEW020 10/09 A3049 RMK AO2 SLP325 T01000089
PFKW 171548Z AUTO 02006KT 10SM FEW020 10/09 A3049 RMK AO2
PFKW 171515Z AUTO 02006KT 10SM BKN018 11/10 A3049 RMK AO2
PFKW 171456Z AUTO 02007KT 10SM CLR 11/10 A3048 RMK AO2 SLP321 T01110100 53002
PFKW 171356Z AUTO 03005KT 10SM SCT006 BKN018 13/12 A3047 RMK AO2 SLP319 T01280122
PFKW 171351Z AUTO 03007KT 10SM SCT006 BKN018 13/12 A3048 RMK AO2
PFKW 171256Z AUTO 36007KT 10SM BKN008 BKN013 OVC031 14/13 A3048 RMK AO2 CIG 005V010 SLP319 T01390128
PFKW 171216Z AUTO 36006KT 10SM SCT004 OVC012 14/13 A3047 RMK AO2
PFKW 171156Z AUTO 35008KT 10SM OVC004 14/13 A3047 RMK AO2 RAE24 SLP317 P0001 60004 70004 T01390133 10150 20139 51001
PFKW 171056Z AUTO 34004KT 9SM -RA OVC004 14/14 A3047 RMK AO2 RAB07 SLP317 P0000 T01390139
PFKW 170956Z AUTO 33004KT 10SM OVC004 14/13 A3047 RMK AO2 RAB16E34 SLP316 P0000 T01390133
PFKW 170935Z AUTO 33005KT 4SM BR OVC004 14/14 A3047 RMK AO2 RAB16E34 P0000
PFKW 170927Z AUTO 32005KT 2 1/2SM -RA BR OVC004 14/14 A3047 RMK AO2 RAB16 P0000
PFKW 170919Z AUTO 31004KT 1 3/4SM -RA BR OVC004 14/14 A3047 RMK AO2 RAB16 P0000
PFKW 170856Z AUTO 31006KT 8SM OVC004 14/14 A3047 RMK AO2 RAE54 CIG 003V009 SLP316 P0001 60003 T01390139 401670117 53000
PFKW 170756Z AUTO 30005KT 5SM -RA BR OVC004 14/14 A3046 RMK AO2 RAE08B43 SLP315 P0000 T01440139
PFKW 170716Z AUTO 29005KT 4SM BR BKN004 OVC012 14/14 A3046 RMK AO2 RAE08 P0000
PFKW 170656Z AUTO 29007KT 3SM -RA BR BKN002 OVC012 14/14 A3046 RMK AO2 RAB00 SLP315 P0002 T01440144
PFKW 170648Z AUTO 26005KT 2 1/2SM -RA BR OVC002 14/14 A3046 RMK AO2 VIS 1 1/2V5 RAB00 P0002
PFKW 170628Z AUTO 25005KT 1 3/4SM -RA BR OVC002 14/14 A3047 RMK AO2 RAB00 CIG 002V007 P0000
PFKW 170621Z AUTO 26004KT 1 1/2SM -RA BR OVC004 14/14 A3047 RMK AO2 RAB00 CIG 002V007 P0000
PFKW 170613Z AUTO 28004KT 1 3/4SM -RA BR OVC006 14/14 A3047 RMK AO2 RAB00 CIG 002V007 P0000
PFKW 170556Z AUTO 24005KT 7SM OVC008 15/14 A3046 RMK AO2 CIG 005V012 SLP315 60000 T01500144 10167 20150 58003
PFKW 170519Z AUTO 26004KT 10SM OVC005 15/14 A3047 RMK AO2 CIG 004V009
PFKW 170456Z AUTO 25006KT 9SM OVC007 15/14 A3047 RMK AO2 CIG 004V011 SLP316 T01500144
PFKW 170434Z AUTO 26007KT 5SM BR BKN007 OVC012 15/14 A3047 RMK AO2 CIG 005V009
PFKW 170426Z AUTO 24006KT 5SM BR SCT007 OVC012 15/14 A3047 RMK AO2
PFKW 170356Z AUTO 25005KT 8SM OVC012 15/14 A3048 RMK AO2 RAB35E51 SLP320 P0000 T01500139